createdAt,value
2024-02-04T00:02:10.764Z,99088.41
2024-02-04T00:04:37.723Z,99091.41
2024-02-04T00:07:04.867Z,99096.41
2024-02-04T00:09:34.515Z,99084.88
2024-02-04T00:12:05.066Z,99080.22
2024-02-04T00:14:32.011Z,99092.50
2024-02-04T00:16:58.701Z,99085.63
2024-02-04T00:19:25.783Z,99080.22
2024-02-04T00:21:52.583Z,99051.84
2024-02-04T00:24:22.817Z,99073.13
2024-02-04T00:26:49.836Z,99070.56
2024-02-04T00:29:16.552Z,99065.47
2024-02-04T00:31:43.851Z,99056.56
2024-02-04T00:34:10.819Z,99055.97
2024-02-04T00:36:37.866Z,99051.41
2024-02-04T00:39:05.008Z,99063.56
2024-02-04T00:41:31.879Z,99060.75
2024-02-04T00:43:58.580Z,99055.44
2024-02-04T00:46:25.364Z,99040.31
2024-02-04T00:48:52.426Z,99056.88
2024-02-04T00:51:21.038Z,99045.00
2024-02-04T00:53:47.974Z,99052.28
2024-02-04T00:56:14.810Z,99049.94
2024-02-04T00:58:41.777Z,99054.03
2024-02-04T01:01:08.852Z,99053.78
2024-02-04T01:03:35.862Z,99044.25
2024-02-04T01:06:02.808Z,99039.78
2024-02-04T01:08:29.627Z,99044.16
2024-02-04T01:10:56.788Z,99057.06
2024-02-04T01:13:23.544Z,99037.97
2024-02-04T01:15:50.365Z,99044.75
2024-02-04T01:18:17.136Z,99060.97
2024-02-04T01:20:43.959Z,99053.28
2024-02-04T01:23:10.636Z,99046.94
2024-02-04T01:25:39.914Z,99054.25
2024-02-04T01:28:08.531Z,99062.78
2024-02-04T01:30:35.328Z,99052.78
2024-02-04T01:33:02.208Z,99049.53
2024-02-04T01:35:29.069Z,99050.63
2024-02-04T01:37:55.987Z,99065.19
2024-02-04T01:40:22.828Z,99044.38
2024-02-04T01:42:49.731Z,99059.19
2024-02-04T01:45:16.661Z,99059.91
2024-02-04T01:47:43.974Z,99057.06
2024-02-04T01:50:11.905Z,99055.53
2024-02-04T01:52:41.487Z,99060.78
2024-02-04T01:55:09.011Z,99057.22
2024-02-04T01:57:38.678Z,99049.97
2024-02-04T02:00:06.470Z,99053.41
2024-02-04T02:02:35.488Z,99054.75
2024-02-04T02:05:02.617Z,99060.19
2024-02-04T02:07:29.639Z,99055.69
2024-02-04T02:09:56.678Z,99067.97
2024-02-04T02:12:27.190Z,99052.88
2024-02-04T02:15:02.334Z,99064.34
2024-02-04T02:18:01.402Z,99075.97
2024-02-04T02:20:55.160Z,99068.69
2024-02-04T02:23:31.660Z,99055.34
2024-02-04T02:26:00.396Z,99064.25
2024-02-04T02:28:27.184Z,99063.91
2024-02-04T02:30:53.974Z,99048.66
2024-02-04T02:33:21.054Z,99059.00
2024-02-04T02:35:54.782Z,99046.81
2024-02-04T02:38:45.114Z,99050.06
2024-02-04T02:41:14.395Z,99043.94
2024-02-04T02:43:42.471Z,99025.69
2024-02-04T02:46:09.530Z,99021.09
2024-02-04T02:48:36.868Z,99023.13
2024-02-04T02:51:03.835Z,99021.72
2024-02-04T02:53:32.844Z,99011.09
2024-02-04T02:56:02.583Z,99012.16
2024-02-04T02:58:29.314Z,99015.56
2024-02-04T03:00:56.090Z,99010.97
2024-02-04T03:03:23.014Z,98995.41
2024-02-04T03:05:49.882Z,98994.41
2024-02-04T03:08:17.964Z,98996.66
2024-02-04T03:10:44.662Z,98971.22
2024-02-04T03:13:15.101Z,98996.25
2024-02-04T03:15:46.829Z,98990.06
2024-02-04T03:18:13.738Z,98995.41
2024-02-04T03:20:40.694Z,98987.25
2024-02-04T03:23:07.538Z,98967.19
2024-02-04T03:25:34.345Z,98986.38
2024-02-04T03:28:01.492Z,98983.53
2024-02-04T03:30:28.419Z,98988.88
2024-02-04T03:32:55.428Z,98988.78
2024-02-04T03:35:22.916Z,98992.91
2024-02-04T03:37:49.863Z,99001.38
2024-02-04T03:40:16.636Z,98992.50
2024-02-04T03:42:43.506Z,98993.50
2024-02-04T03:45:10.436Z,98994.88
2024-02-04T03:47:37.334Z,98997.97
2024-02-04T03:50:05.080Z,99006.28
2024-02-04T03:52:32.101Z,99000.25
2024-02-04T03:55:00.751Z,99000.09
2024-02-04T03:57:29.621Z,99006.53
2024-02-04T03:59:56.338Z,99003.81
2024-02-04T04:02:23.059Z,99008.41
2024-02-04T04:04:50.070Z,99008.78
2024-02-04T04:07:17.370Z,99006.81
2024-02-04T04:09:44.248Z,98996.88
2024-02-04T04:12:10.985Z,99012.88
2024-02-04T04:14:37.852Z,99001.66
2024-02-04T04:17:04.908Z,99001.97
2024-02-04T04:19:34.286Z,99012.50
2024-02-04T04:22:02.551Z,99009.47
2024-02-04T04:24:29.320Z,99014.28
2024-02-04T04:26:56.055Z,99016.84
2024-02-04T04:29:22.846Z,99011.66
2024-02-04T04:31:49.658Z,99032.19
2024-02-04T04:34:16.521Z,99033.22
2024-02-04T04:36:43.584Z,99034.97
2024-02-04T04:39:10.260Z,99043.94
2024-02-04T04:41:37.027Z,99044.13
2024-02-04T04:44:04.246Z,99040.03
2024-02-04T04:46:30.923Z,99061.97
2024-02-04T04:48:59.313Z,99065.56
2024-02-04T04:51:26.436Z,99057.56
2024-02-04T04:53:53.228Z,99059.03
2024-02-04T04:56:20.028Z,99060.56
2024-02-04T04:58:46.797Z,99075.00
2024-02-04T05:01:13.678Z,99066.88
2024-02-04T05:03:41.509Z,99071.97
2024-02-04T05:06:08.406Z,99074.81
2024-02-04T05:08:35.132Z,99071.28
2024-02-04T05:11:02.036Z,99075.97
2024-02-04T05:13:28.791Z,99086.59
2024-02-04T05:15:55.726Z,99079.84
2024-02-04T05:18:22.526Z,99078.25
2024-02-04T05:20:49.712Z,99079.69
2024-02-04T05:23:16.405Z,99079.53
2024-02-04T05:25:43.157Z,99082.66
2024-02-04T05:28:10.295Z,99075.59
2024-02-04T05:30:37.225Z,99077.38
2024-02-04T05:33:04.220Z,99082.94
2024-02-04T05:35:31.041Z,99079.25
2024-02-04T05:37:57.717Z,99074.59
2024-02-04T05:40:24.504Z,99085.69
2024-02-04T05:42:52.491Z,99077.59
2024-02-04T05:45:19.294Z,99077.22
2024-02-04T05:47:46.072Z,99089.72
2024-02-04T05:50:14.121Z,99092.19
2024-02-04T05:52:40.917Z,99086.41
2024-02-04T05:55:07.917Z,99083.94
2024-02-04T05:57:34.765Z,99091.94
2024-02-04T06:00:01.626Z,99118.44
2024-02-04T06:02:28.419Z,99081.94
2024-02-04T06:04:55.978Z,99092.53
2024-02-04T06:07:22.911Z,99098.50
2024-02-04T06:09:49.730Z,99085.41
2024-02-04T06:12:16.490Z,99110.25
2024-02-04T06:14:43.192Z,99100.72
2024-02-04T06:17:11.274Z,99100.03
2024-02-04T06:19:38.330Z,99086.75
2024-02-04T06:22:05.494Z,99094.00
2024-02-04T06:24:32.516Z,99092.72
2024-02-04T06:26:59.470Z,99090.00
2024-02-04T06:29:26.384Z,99088.97
2024-02-04T06:31:53.097Z,99083.41
2024-02-04T06:34:19.957Z,99093.44
2024-02-04T06:36:46.877Z,99096.31
2024-02-04T06:39:14.502Z,99097.69
2024-02-04T06:41:41.216Z,99088.63
2024-02-04T06:44:07.916Z,99111.91
2024-02-04T06:46:34.831Z,99094.97
2024-02-04T06:49:02.482Z,99110.00
2024-02-04T06:51:29.648Z,99119.28
2024-02-04T06:53:56.466Z,99113.38
2024-02-04T06:56:23.302Z,99096.50
2024-02-04T06:58:50.207Z,99120.50
2024-02-04T07:01:16.948Z,99114.44
2024-02-04T07:03:43.868Z,99139.00
2024-02-04T07:06:10.670Z,99123.22
2024-02-04T07:08:37.465Z,99105.72
2024-02-04T07:11:04.660Z,99126.50
2024-02-04T07:13:31.452Z,99124.56
2024-02-04T07:15:59.019Z,99132.28
2024-02-04T07:18:26.294Z,99098.25
2024-02-04T07:20:53.183Z,99123.00
2024-02-04T07:23:19.931Z,99134.19
2024-02-04T07:25:46.868Z,99105.78
2024-02-04T07:28:13.838Z,99120.28
2024-02-04T07:30:40.717Z,99136.00
2024-02-04T07:33:07.614Z,99128.66
2024-02-04T07:35:34.433Z,99127.59
2024-02-04T07:38:01.195Z,99142.22
2024-02-04T07:40:29.148Z,99145.03
2024-02-04T07:42:56.508Z,99130.19
2024-02-04T07:45:23.319Z,99119.31
2024-02-04T07:47:50.159Z,99135.34
2024-02-04T07:50:17.081Z,99129.34
2024-02-04T07:52:45.219Z,99131.75
2024-02-04T07:55:12.515Z,99132.28
2024-02-04T07:57:39.513Z,99129.50
2024-02-04T08:00:07.636Z,99142.81
2024-02-04T08:02:39.515Z,99132.53
2024-02-04T08:05:06.773Z,99142.31
2024-02-04T08:07:33.794Z,99141.28
2024-02-04T08:10:00.810Z,99153.56
2024-02-04T08:12:27.593Z,99138.13
2024-02-04T08:14:54.362Z,99150.88
2024-02-04T08:17:21.117Z,99133.91
2024-02-04T08:19:48.683Z,99160.38
2024-02-04T08:22:15.695Z,99155.09
2024-02-04T08:24:42.681Z,99168.53
2024-02-04T08:27:09.671Z,99164.06
2024-02-04T08:29:36.437Z,99164.22
2024-02-04T08:32:03.697Z,99174.94
2024-02-04T08:34:30.596Z,99171.28
2024-02-04T08:36:57.313Z,99177.97
2024-02-04T08:39:24.348Z,99166.97
2024-02-04T08:41:51.052Z,99182.94
2024-02-04T08:44:26.779Z,99166.00
2024-02-04T08:47:02.739Z,99168.34
2024-02-04T08:49:30.821Z,99174.88
2024-02-04T08:51:57.738Z,99156.88
2024-02-04T08:54:24.539Z,99163.47
2024-02-04T08:56:51.441Z,99171.78
2024-02-04T08:59:18.175Z,99170.88
2024-02-04T09:01:45.152Z,99166.25
2024-02-04T09:04:11.948Z,99159.78
2024-02-04T09:06:38.862Z,99172.44
2024-02-04T09:09:05.854Z,99168.56
2024-02-04T09:11:32.592Z,99170.75
2024-02-04T09:13:59.297Z,99159.22
2024-02-04T09:16:26.208Z,99159.00
2024-02-04T09:18:53.014Z,99143.28
2024-02-04T09:21:20.083Z,99154.91
2024-02-04T09:23:47.478Z,99154.47
2024-02-04T09:26:18.969Z,99166.97
2024-02-04T09:28:46.697Z,99163.00
2024-02-04T09:31:13.714Z,99167.06
2024-02-04T09:33:41.919Z,99172.19
2024-02-04T09:36:09.228Z,99168.22
2024-02-04T09:38:36.118Z,99167.47
2024-02-04T09:41:06.784Z,99181.25
2024-02-04T09:43:34.377Z,99182.94
2024-02-04T09:46:02.048Z,99173.81
2024-02-04T09:48:34.161Z,99182.47
2024-02-04T09:51:01.390Z,99176.53
2024-02-04T09:53:41.635Z,99172.19
2024-02-04T09:56:10.205Z,99180.63
2024-02-04T09:58:37.265Z,99180.56
2024-02-04T10:01:05.832Z,99167.72
2024-02-04T10:03:33.001Z,99170.19
2024-02-04T10:05:59.961Z,99170.81
2024-02-04T10:08:27.394Z,99162.84
2024-02-04T10:10:55.948Z,99164.31
2024-02-04T10:13:23.744Z,99151.53
2024-02-04T10:15:52.763Z,99154.22
2024-02-04T10:18:19.610Z,99146.09
2024-02-04T10:20:46.383Z,99165.63
2024-02-04T10:23:13.360Z,99151.75
2024-02-04T10:25:40.434Z,99154.28
2024-02-04T10:28:07.611Z,99155.34
2024-02-04T10:30:35.334Z,99156.03
2024-02-04T10:33:02.062Z,99151.81
2024-02-04T10:35:28.809Z,99155.22
2024-02-04T10:37:55.536Z,99153.53
2024-02-04T10:40:22.517Z,99150.22
2024-02-04T10:42:51.839Z,99148.53
2024-02-04T10:45:19.398Z,99144.50
2024-02-04T10:47:56.704Z,99147.47
2024-02-04T10:50:26.591Z,99144.25
2024-02-04T10:52:54.298Z,99142.03
2024-02-04T10:55:28.989Z,99135.75
2024-02-04T10:57:56.629Z,99134.13
2024-02-04T11:00:23.966Z,99133.41
2024-02-04T11:02:52.613Z,99127.47
2024-02-04T11:05:20.548Z,99120.59
2024-02-04T11:07:48.193Z,99113.56
2024-02-04T11:10:15.942Z,99105.97
2024-02-04T11:12:43.818Z,99099.97
2024-02-04T11:15:13.133Z,99100.56
2024-02-04T11:18:18.391Z,99089.81
2024-02-04T11:20:55.468Z,99090.41
2024-02-04T11:23:38.270Z,99089.81
2024-02-04T11:26:06.096Z,99088.53
2024-02-04T11:28:34.246Z,99086.34
2024-02-04T11:31:01.531Z,99075.91
2024-02-04T11:33:29.398Z,99075.75
2024-02-04T11:36:13.406Z,99072.19
2024-02-04T11:38:41.313Z,99070.19
2024-02-04T11:41:09.393Z,99055.94
2024-02-04T11:43:38.918Z,99065.16
2024-02-04T11:46:06.864Z,99053.63
2024-02-04T11:48:36.266Z,99055.91
2024-02-04T11:51:05.697Z,99048.25
2024-02-04T11:53:35.827Z,99044.88
2024-02-04T11:56:04.388Z,99046.50
2024-02-04T11:58:33.073Z,99041.63
2024-02-04T12:01:00.272Z,99034.75
2024-02-04T12:03:35.003Z,99031.22
2024-02-04T12:06:03.646Z,99028.59
2024-02-04T12:08:33.476Z,99033.91
2024-02-04T12:11:01.489Z,99032.56
2024-02-04T12:13:29.924Z,99034.22
2024-02-04T12:15:56.956Z,99030.72
2024-02-04T12:18:24.088Z,99027.78
2024-02-04T12:20:51.817Z,99033.41
2024-02-04T12:23:24.754Z,99023.91
2024-02-04T12:25:51.873Z,99025.25
2024-02-04T12:28:20.899Z,99017.59
2024-02-04T12:30:59.918Z,99011.41
2024-02-04T12:33:27.090Z,99010.81
2024-02-04T12:35:57.117Z,99007.31
2024-02-04T12:38:24.159Z,99002.34
2024-02-04T12:40:51.807Z,99007.22
2024-02-04T12:43:18.671Z,99000.63
2024-02-04T12:45:45.613Z,98989.66
2024-02-04T12:48:16.962Z,98985.78
2024-02-04T12:50:43.733Z,98987.44
2024-02-04T12:53:14.462Z,98986.31
2024-02-04T12:55:41.533Z,98983.84
2024-02-04T12:58:10.366Z,98976.19
2024-02-04T13:00:38.534Z,98977.81
2024-02-04T13:03:07.141Z,98988.25
2024-02-04T13:05:34.528Z,98974.97
2024-02-04T13:08:03.703Z,98971.00
2024-02-04T13:10:32.591Z,98976.94
2024-02-04T13:13:10.231Z,98965.97
2024-02-04T13:15:42.563Z,98966.59
2024-02-04T13:18:11.793Z,98965.84
2024-02-04T13:20:39.598Z,98961.91
2024-02-04T13:23:06.998Z,98953.97
2024-02-04T13:25:34.614Z,98944.63
2024-02-04T13:28:02.497Z,98949.03
2024-02-04T13:30:29.465Z,98947.13
2024-02-04T13:32:57.899Z,98944.94
2024-02-04T13:35:25.422Z,98953.38
2024-02-04T13:37:53.455Z,98938.88
2024-02-04T13:40:21.566Z,98952.91
2024-02-04T13:42:49.380Z,98938.47
2024-02-04T13:45:16.485Z,98949.69
2024-02-04T13:47:43.921Z,98945.22
2024-02-04T13:50:12.273Z,98946.81
2024-02-04T13:52:40.177Z,98939.28
2024-02-04T13:55:10.794Z,98920.94
2024-02-04T13:57:37.989Z,98929.63
2024-02-04T14:00:07.237Z,98932.91
2024-02-04T14:02:34.126Z,98936.44
2024-02-04T14:05:01.639Z,98916.00
2024-02-04T14:07:28.792Z,98924.69
2024-02-04T14:09:56.114Z,98925.94
2024-02-04T14:12:23.198Z,98931.53
2024-02-04T14:14:49.987Z,98928.63
2024-02-04T14:17:16.973Z,98918.81
2024-02-04T14:19:46.495Z,98930.94
2024-02-04T14:22:13.527Z,98924.72
2024-02-04T14:24:40.380Z,98925.34
2024-02-04T14:27:07.393Z,98938.47
2024-02-04T14:29:34.267Z,98933.50
2024-02-04T14:32:01.670Z,98937.03
2024-02-04T14:34:29.534Z,98927.03
2024-02-04T14:36:56.639Z,98921.78
2024-02-04T14:39:23.524Z,98916.81
2024-02-04T14:41:50.297Z,98922.31
2024-02-04T14:44:16.943Z,98927.06
2024-02-04T14:46:44.018Z,98922.38
2024-02-04T14:49:10.964Z,98921.34
2024-02-04T14:51:40.744Z,98926.50
2024-02-04T14:54:10.690Z,98934.53
2024-02-04T14:56:41.960Z,98927.97
2024-02-04T14:59:21.334Z,98927.66
2024-02-04T15:01:51.508Z,98933.50
2024-02-04T15:04:19.756Z,98936.03
2024-02-04T15:06:47.213Z,98930.50
2024-02-04T15:09:15.870Z,98930.19
2024-02-04T15:11:44.258Z,98926.63
2024-02-04T15:14:11.312Z,98931.91
2024-02-04T15:16:41.018Z,98932.06
2024-02-04T15:19:09.031Z,98938.66
2024-02-04T15:21:36.821Z,98947.72
2024-02-04T15:24:07.435Z,98942.34
2024-02-04T15:26:35.735Z,98941.19
2024-02-04T15:29:06.021Z,98948.44
2024-02-04T15:31:34.801Z,98952.91
2024-02-04T15:34:03.809Z,98950.84
2024-02-04T15:36:33.410Z,98942.66
2024-02-04T15:39:00.187Z,98939.69
2024-02-04T15:41:26.917Z,98948.91
2024-02-04T15:43:53.701Z,98953.72
2024-02-04T15:46:21.363Z,98946.59
2024-02-04T15:48:53.128Z,98939.97
2024-02-04T15:51:20.752Z,98949.34
2024-02-04T15:53:47.793Z,98954.66
2024-02-04T15:56:17.657Z,98955.81
2024-02-04T15:58:44.606Z,98956.16
2024-02-04T16:01:14.454Z,98945.94
2024-02-04T16:03:42.695Z,98958.03
2024-02-04T16:06:10.244Z,98953.22
2024-02-04T16:08:39.320Z,98954.34
2024-02-04T16:11:10.003Z,98937.97
2024-02-04T16:13:39.356Z,98961.44
2024-02-04T16:16:09.785Z,98955.75
2024-02-04T16:18:36.952Z,98970.19
2024-02-04T16:21:04.087Z,98966.56
2024-02-04T16:23:30.993Z,98967.50
2024-02-04T16:25:58.678Z,98966.63
2024-02-04T16:28:25.690Z,98969.31
2024-02-04T16:30:52.429Z,98977.81
2024-02-04T16:33:19.330Z,98977.97
2024-02-04T16:35:46.089Z,98978.03
2024-02-04T16:38:13.124Z,98982.00
2024-02-04T16:40:43.833Z,98973.66
2024-02-04T16:43:10.712Z,98992.59
2024-02-04T16:45:37.580Z,98988.16
2024-02-04T16:48:04.790Z,98982.47
2024-02-04T16:50:31.625Z,98993.19
2024-02-04T16:52:58.566Z,98991.09
2024-02-04T16:55:25.341Z,98996.84
2024-02-04T16:57:52.157Z,99002.13
2024-02-04T17:00:19.103Z,99005.25
2024-02-04T17:02:46.086Z,99014.78
2024-02-04T17:05:13.448Z,99015.38
2024-02-04T17:07:42.344Z,99001.91
2024-02-04T17:10:10.718Z,99008.31
2024-02-04T17:12:37.864Z,99018.88
2024-02-04T17:15:05.873Z,99010.53
2024-02-04T17:17:34.534Z,99018.59
2024-02-04T17:20:16.979Z,99023.59
2024-02-04T17:22:45.650Z,99014.22
2024-02-04T17:25:19.446Z,99026.53
2024-02-04T17:27:48.140Z,99026.53
2024-02-04T17:30:18.160Z,99027.16
2024-02-04T17:32:46.455Z,99028.13
2024-02-04T17:35:14.978Z,99032.38
2024-02-04T17:37:42.185Z,99024.34
2024-02-04T17:40:10.589Z,99022.00
2024-02-04T17:42:37.872Z,99018.03
2024-02-04T17:45:07.908Z,99020.66
2024-02-04T17:47:36.118Z,99024.81
2024-02-04T17:50:03.519Z,99022.38
2024-02-04T17:52:30.460Z,99025.22
2024-02-04T17:54:57.265Z,99027.78
2024-02-04T17:57:24.397Z,99021.41
2024-02-04T17:59:51.767Z,99031.44
2024-02-04T18:02:27.813Z,99026.84
2024-02-04T18:05:02.108Z,99030.97
2024-02-04T18:07:29.057Z,99033.00
2024-02-04T18:09:55.864Z,99030.84
2024-02-04T18:12:22.789Z,99018.16
2024-02-04T18:14:51.104Z,99027.78
2024-02-04T18:17:17.943Z,99034.25
2024-02-04T18:19:44.831Z,99025.09
2024-02-04T18:22:11.673Z,99021.44
2024-02-04T18:24:39.625Z,99026.75
2024-02-04T18:27:06.910Z,99027.03
2024-02-04T18:29:33.789Z,99033.00
2024-02-04T18:32:00.533Z,99020.97
2024-02-04T18:34:27.537Z,99034.38
2024-02-04T18:36:54.562Z,99035.03
2024-02-04T18:39:21.283Z,99023.41
2024-02-04T18:41:48.094Z,99026.31
2024-02-04T18:44:16.434Z,99039.25
2024-02-04T18:46:43.934Z,99035.31
2024-02-04T18:49:11.703Z,99030.97
2024-02-04T18:51:44.127Z,99034.44
2024-02-04T18:54:11.104Z,99040.75
2024-02-04T18:56:45.829Z,99037.94
2024-02-04T18:59:12.670Z,99039.84
2024-02-04T19:01:40.578Z,99040.78
2024-02-04T19:04:08.015Z,99047.84
2024-02-04T19:06:35.913Z,99042.09
2024-02-04T19:09:04.406Z,99036.75
2024-02-04T19:11:32.935Z,99044.41
2024-02-04T19:14:00.845Z,99038.88
2024-02-04T19:16:27.547Z,99039.19
2024-02-04T19:18:55.677Z,99037.38
2024-02-04T19:21:23.061Z,99045.97
2024-02-04T19:23:49.844Z,99050.97
2024-02-04T19:26:18.257Z,99047.47
2024-02-04T19:28:45.005Z,99031.44
2024-02-04T19:31:12.348Z,99044.84
2024-02-04T19:33:39.600Z,99058.22
2024-02-04T19:36:07.110Z,99036.41
2024-02-04T19:38:34.160Z,99045.28
2024-02-04T19:41:01.156Z,99045.88
2024-02-04T19:43:31.407Z,99051.81
2024-02-04T19:45:59.697Z,99036.19
2024-02-04T19:48:27.915Z,99049.97
2024-02-04T19:50:55.095Z,99041.59
2024-02-04T19:53:22.040Z,99055.19
2024-02-04T19:55:49.449Z,99056.53
2024-02-04T19:58:16.341Z,99052.06
2024-02-04T20:00:43.566Z,99055.09
2024-02-04T20:03:10.704Z,99054.03
2024-02-04T20:05:37.720Z,99051.47
2024-02-04T20:08:05.024Z,99055.66
2024-02-04T20:10:32.957Z,99062.03
2024-02-04T20:12:59.957Z,99056.38
2024-02-04T20:15:29.676Z,99056.09
2024-02-04T20:17:58.527Z,99062.34
2024-02-04T20:20:28.088Z,99051.94
2024-02-04T20:22:57.242Z,99054.59
2024-02-04T20:25:29.229Z,99057.34
2024-02-04T20:27:57.592Z,99060.91
2024-02-04T20:30:30.220Z,99055.22
2024-02-04T20:32:58.297Z,99047.09
2024-02-04T20:35:28.986Z,99048.50
2024-02-04T20:38:01.130Z,99055.44
2024-02-04T20:40:29.352Z,99053.41
2024-02-04T20:42:56.622Z,99040.47
2024-02-04T20:45:23.580Z,99051.94
2024-02-04T20:47:50.805Z,99060.50
2024-02-04T20:50:18.287Z,99058.69
2024-02-04T20:52:45.601Z,99049.84
2024-02-04T20:55:12.733Z,99051.94
2024-02-04T20:57:40.207Z,99057.31
2024-02-04T21:00:08.629Z,99058.09
2024-02-04T21:02:36.374Z,99051.88
2024-02-04T21:05:03.839Z,99058.41
2024-02-04T21:07:31.129Z,99051.97
2024-02-04T21:09:58.246Z,99059.03
2024-02-04T21:12:25.229Z,99058.41
2024-02-04T21:14:52.381Z,99055.63
2024-02-04T21:17:21.541Z,99064.34
2024-02-04T21:19:50.558Z,99062.88
2024-02-04T21:22:17.895Z,99057.56
2024-02-04T21:24:45.530Z,99053.00
2024-02-04T21:27:12.336Z,99059.28
2024-02-04T21:29:39.265Z,99051.97
2024-02-04T21:32:06.632Z,99067.91
2024-02-04T21:34:34.019Z,99065.59
2024-02-04T21:37:01.019Z,99056.19
2024-02-04T21:39:27.889Z,99069.59
2024-02-04T21:41:55.480Z,99071.25
2024-02-04T21:44:22.400Z,99071.66
2024-02-04T21:46:49.366Z,99069.28
2024-02-04T21:49:16.639Z,99070.53
2024-02-04T21:51:43.711Z,99069.19
2024-02-04T21:54:10.467Z,99070.38
2024-02-04T21:56:37.608Z,99068.03
2024-02-04T21:59:04.557Z,99066.78
2024-02-04T22:01:31.385Z,99073.59
2024-02-04T22:03:59.594Z,99081.75
2024-02-04T22:06:26.823Z,99066.59
2024-02-04T22:08:53.582Z,99074.50
2024-02-04T22:11:20.534Z,99069.91
2024-02-04T22:13:47.652Z,99078.44
2024-02-04T22:16:14.535Z,99077.25
2024-02-04T22:18:41.544Z,99078.88
2024-02-04T22:21:08.725Z,99080.72
2024-02-04T22:23:36.092Z,99080.38
2024-02-04T22:26:02.874Z,99088.66
2024-02-04T22:28:29.612Z,99083.03
2024-02-04T22:30:56.321Z,99076.63
2024-02-04T22:33:23.122Z,99088.31
2024-02-04T22:35:49.842Z,99082.03
2024-02-04T22:38:16.616Z,99070.16
2024-02-04T22:40:43.277Z,99078.16
2024-02-04T22:43:10.451Z,99077.78
2024-02-04T22:45:37.962Z,99084.13
2024-02-04T22:48:06.794Z,99082.38
2024-02-04T22:50:33.815Z,99083.91
2024-02-04T22:53:00.775Z,99077.53
2024-02-04T22:55:27.651Z,99092.47
2024-02-04T22:57:54.561Z,99086.56
2024-02-04T23:00:30.651Z,99082.56
2024-02-04T23:02:59.961Z,99082.84
2024-02-04T23:05:30.925Z,99090.13
2024-02-04T23:07:59.760Z,99091.69
2024-02-04T23:10:28.014Z,99093.41
2024-02-04T23:12:56.668Z,99085.38
2024-02-04T23:15:23.510Z,99082.75
2024-02-04T23:17:53.644Z,99103.44
2024-02-04T23:20:21.113Z,99098.81
2024-02-04T23:22:48.330Z,99097.41
2024-02-04T23:25:15.895Z,99096.06
2024-02-04T23:27:42.914Z,99101.25
2024-02-04T23:30:10.316Z,99093.66
2024-02-04T23:32:37.217Z,99092.66
2024-02-04T23:35:05.757Z,99099.69
2024-02-04T23:37:34.951Z,99098.19
2024-02-04T23:40:02.313Z,99100.16
2024-02-04T23:42:29.071Z,99093.94
2024-02-04T23:44:56.751Z,99087.22
2024-02-04T23:47:23.725Z,99097.41
2024-02-04T23:49:50.633Z,99097.91
2024-02-04T23:52:17.681Z,99087.97
2024-02-04T23:54:45.034Z,99090.88
2024-02-04T23:57:11.720Z,99093.56
2024-02-04T23:59:38.717Z,99093.38
